sensor_id;sensor_type;location;lat;lon;timestamp;pressure;altitude;pressure_sealevel;temperature;humidity
66887;BME280;67239;51.680;5.976;2023-04-06T00:01:03;101730.03;;;0.84;65.17
66887;BME280;67239;51.680;5.976;2023-04-06T00:03:30;101722.25;;;0.84;65.09
66887;BME280;67239;51.680;5.976;2023-04-06T00:05:57;101716.16;;;0.82;65.52
66887;BME280;67239;51.680;5.976;2023-04-06T00:08:25;101713.53;;;0.80;65.78
66887;BME280;67239;51.680;5.976;2023-04-06T00:10:53;101705.72;;;0.79;65.90
66887;BME280;67239;51.680;5.976;2023-04-06T00:13:20;101710.00;;;0.78;66.20
66887;BME280;67239;51.680;5.976;2023-04-06T00:15:47;101712.56;;;0.76;66.49
66887;BME280;67239;51.680;5.976;2023-04-06T00:18:14;101709.03;;;0.73;66.30
66887;BME280;67239;51.680;5.976;2023-04-06T00:20:41;101712.47;;;0.72;66.29
66887;BME280;67239;51.680;5.976;2023-04-06T00:23:08;101711.53;;;0.70;66.64
66887;BME280;67239;51.680;5.976;2023-04-06T00:25:35;101709.75;;;0.66;66.42
66887;BME280;67239;51.680;5.976;2023-04-06T00:28:02;101703.53;;;0.60;66.55
66887;BME280;67239;51.680;5.976;2023-04-06T00:30:30;101708.69;;;0.59;66.39
66887;BME280;67239;51.680;5.976;2023-04-06T00:32:57;101704.28;;;0.56;66.46
66887;BME280;67239;51.680;5.976;2023-04-06T00:35:24;101700.75;;;0.53;66.51
66887;BME280;67239;51.680;5.976;2023-04-06T00:37:51;101706.78;;;0.52;66.78
66887;BME280;67239;51.680;5.976;2023-04-06T00:40:18;101696.34;;;0.49;66.75
66887;BME280;67239;51.680;5.976;2023-04-06T00:42:45;101696.28;;;0.47;66.80
66887;BME280;67239;51.680;5.976;2023-04-06T00:45:12;101692.78;;;0.45;66.93
66887;BME280;67239;51.680;5.976;2023-04-06T00:47:40;101691.03;;;0.44;66.66
66887;BME280;67239;51.680;5.976;2023-04-06T00:50:07;101695.31;;;0.42;66.75
66887;BME280;67239;51.680;5.976;2023-04-06T00:52:34;101689.22;;;0.41;67.00
66887;BME280;67239;51.680;5.976;2023-04-06T00:55:04;101688.31;;;0.39;66.98
66887;BME280;67239;51.680;5.976;2023-04-06T00:57:36;101683.88;;;0.35;66.87
66887;BME280;67239;51.680;5.976;2023-04-06T01:00:04;101679.50;;;0.33;66.89
66887;BME280;67239;51.680;5.976;2023-04-06T01:02:31;101675.97;;;0.30;66.88
66887;BME280;67239;51.680;5.976;2023-04-06T01:04:59;101682.00;;;0.29;67.00
66887;BME280;67239;51.680;5.976;2023-04-06T01:07:37;101677.63;;;0.27;67.04
66887;BME280;67239;51.680;5.976;2023-04-06T01:10:28;101674.09;;;0.25;67.28
66887;BME280;67239;51.680;5.976;2023-04-06T01:13:01;101662.78;;;0.21;67.16
66887;BME280;67239;51.680;5.976;2023-04-06T01:15:58;101665.28;;;0.18;67.18
66887;BME280;67239;51.680;5.976;2023-04-06T01:18:43;101667.75;;;0.13;67.37
66887;BME280;67239;51.680;5.976;2023-04-06T01:21:18;101661.72;;;0.13;67.22
66887;BME280;67239;51.680;5.976;2023-04-06T01:23:59;101658.16;;;0.09;67.35
66887;BME280;67239;51.680;5.976;2023-04-06T01:26:33;101663.28;;;0.08;67.38
66887;BME280;67239;51.680;5.976;2023-04-06T01:29:06;101660.69;;;0.06;67.50
66887;BME280;67239;51.680;5.976;2023-04-06T01:31:34;101651.09;;;0.04;67.80
66887;BME280;67239;51.680;5.976;2023-04-06T01:34:01;101651.94;;;0.03;68.20
66887;BME280;67239;51.680;5.976;2023-04-06T01:36:28;101654.53;;;0.03;68.46
66887;BME280;67239;51.680;5.976;2023-04-06T01:39:09;101641.50;;;0.01;68.52
66887;BME280;67239;51.680;5.976;2023-04-06T01:41:39;101649.25;;;-0.01;68.54
66887;BME280;67239;51.680;5.976;2023-04-06T01:44:06;101638.84;;;-0.02;68.63
66887;BME280;67239;51.680;5.976;2023-04-06T01:46:33;101641.38;;;-0.05;68.63
66887;BME280;67239;51.680;5.976;2023-04-06T01:49:04;101635.25;;;-0.07;68.65
66887;BME280;67239;51.680;5.976;2023-04-06T01:51:34;101633.47;;;-0.10;68.74
66887;BME280;67239;51.680;5.976;2023-04-06T01:54:04;101635.97;;;-0.13;69.04
66887;BME280;67239;51.680;5.976;2023-04-06T01:56:41;101634.19;;;-0.16;69.04
66887;BME280;67239;51.680;5.976;2023-04-06T01:59:21;101634.97;;;-0.18;68.61
66887;BME280;67239;51.680;5.976;2023-04-06T02:01:48;101632.31;;;-0.21;69.00
66887;BME280;67239;51.680;5.976;2023-04-06T02:04:15;101633.97;;;-0.23;69.26
66887;BME280;67239;51.680;5.976;2023-04-06T02:06:44;101627.91;;;-0.24;69.42
66887;BME280;67239;51.680;5.976;2023-04-06T02:09:14;101626.97;;;-0.27;69.60
66887;BME280;67239;51.680;5.976;2023-04-06T02:11:41;101621.72;;;-0.29;69.61
66887;BME280;67239;51.680;5.976;2023-04-06T02:14:08;101619.00;;;-0.34;69.84
66887;BME280;67239;51.680;5.976;2023-04-06T02:16:41;101618.97;;;-0.35;70.12
66887;BME280;67239;51.680;5.976;2023-04-06T02:19:08;101614.53;;;-0.39;69.97
66887;BME280;67239;51.680;5.976;2023-04-06T02:21:35;101608.41;;;-0.43;70.54
66887;BME280;67239;51.680;5.976;2023-04-06T02:24:02;101611.78;;;-0.45;70.79
66887;BME280;67239;51.680;5.976;2023-04-06T02:26:29;101615.19;;;-0.48;70.70
66887;BME280;67239;51.680;5.976;2023-04-06T02:28:56;101611.63;;;-0.52;70.77
66887;BME280;67239;51.680;5.976;2023-04-06T02:31:23;101609.88;;;-0.53;70.75
66887;BME280;67239;51.680;5.976;2023-04-06T02:33:51;101609.81;;;-0.54;70.96
66887;BME280;67239;51.680;5.976;2023-04-06T02:36:18;101603.78;;;-0.53;71.38
66887;BME280;67239;51.680;5.976;2023-04-06T02:38:45;101597.66;;;-0.57;70.99
66887;BME280;67239;51.680;5.976;2023-04-06T02:41:12;101593.41;;;-0.55;71.23
66887;BME280;67239;51.680;5.976;2023-04-06T02:43:39;101597.69;;;-0.55;71.20
66887;BME280;67239;51.680;5.976;2023-04-06T02:46:17;101596.00;;;-0.55;71.26
66887;BME280;67239;51.680;5.976;2023-04-06T02:48:44;101592.47;;;-0.57;71.03
66887;BME280;67239;51.680;5.976;2023-04-06T02:51:11;101589.88;;;-0.57;71.25
66887;BME280;67239;51.680;5.976;2023-04-06T02:53:40;101587.31;;;-0.55;71.38
66887;BME280;67239;51.680;5.976;2023-04-06T02:56:07;101582.22;;;-0.54;72.02
66887;BME280;67239;51.680;5.976;2023-04-06T02:58:44;101576.13;;;-0.54;72.04
66887;BME280;67239;51.680;5.976;2023-04-06T03:01:12;101577.09;;;-0.51;72.22
66887;BME280;67239;51.680;5.976;2023-04-06T03:03:40;101569.38;;;-0.49;71.98
66887;BME280;67239;51.680;5.976;2023-04-06T03:06:14;101569.47;;;-0.46;71.93
66887;BME280;67239;51.680;5.976;2023-04-06T03:08:42;101565.25;;;-0.42;72.13
66887;BME280;67239;51.680;5.976;2023-04-06T03:11:10;101567.97;;;-0.36;72.41
66887;BME280;67239;51.680;5.976;2023-04-06T03:13:40;101563.75;;;-0.33;72.44
66887;BME280;67239;51.680;5.976;2023-04-06T03:16:07;101566.44;;;-0.29;72.43
66887;BME280;67239;51.680;5.976;2023-04-06T03:18:34;101563.97;;;-0.25;72.55
66887;BME280;67239;51.680;5.976;2023-04-06T03:21:01;101564.06;;;-0.22;72.31
66887;BME280;67239;51.680;5.976;2023-04-06T03:23:41;101561.50;;;-0.19;72.72
66887;BME280;67239;51.680;5.976;2023-04-06T03:26:10;101559.88;;;-0.15;72.32
66887;BME280;67239;51.680;5.976;2023-04-06T03:28:37;101565.16;;;-0.12;72.50
66887;BME280;67239;51.680;5.976;2023-04-06T03:31:05;101560.97;;;-0.07;72.35
66887;BME280;67239;51.680;5.976;2023-04-06T03:33:55;101564.44;;;-0.06;72.34
66887;BME280;67239;51.680;5.976;2023-04-06T03:36:26;101566.28;;;-0.02;72.50
66887;BME280;67239;51.680;5.976;2023-04-06T03:38:56;101562.91;;;0.02;72.52
66887;BME280;67239;51.680;5.976;2023-04-06T03:41:23;101563.91;;;0.07;72.70
66887;BME280;67239;51.680;5.976;2023-04-06T03:44:02;101561.44;;;0.13;72.54
66887;BME280;67239;51.680;5.976;2023-04-06T03:46:29;101558.97;;;0.18;72.51
66887;BME280;67239;51.680;5.976;2023-04-06T03:48:58;101556.47;;;0.23;72.23
66887;BME280;67239;51.680;5.976;2023-04-06T03:51:25;101550.53;;;0.27;72.29
66887;BME280;67239;51.680;5.976;2023-04-06T03:53:53;101553.22;;;0.32;72.21
66887;BME280;67239;51.680;5.976;2023-04-06T03:56:20;101550.66;;;0.33;72.12
66887;BME280;67239;51.680;5.976;2023-04-06T03:58:47;101546.41;;;0.37;72.24
66887;BME280;67239;51.680;5.976;2023-04-06T04:01:19;101544.81;;;0.42;72.31
66887;BME280;67239;51.680;5.976;2023-04-06T04:03:47;101540.56;;;0.45;72.27
66887;BME280;67239;51.680;5.976;2023-04-06T04:06:17;101540.69;;;0.50;72.17
66887;BME280;67239;51.680;5.976;2023-04-06T04:08:45;101545.13;;;0.56;72.31
66887;BME280;67239;51.680;5.976;2023-04-06T04:11:12;101546.06;;;0.59;72.30
66887;BME280;67239;51.680;5.976;2023-04-06T04:13:39;101551.34;;;0.64;72.34
66887;BME280;67239;51.680;5.976;2023-04-06T04:16:07;101554.91;;;0.68;72.22
66887;BME280;67239;51.680;5.976;2023-04-06T04:18:35;101545.50;;;0.73;72.16
66887;BME280;67239;51.680;5.976;2023-04-06T04:21:03;101550.78;;;0.76;72.40
66887;BME280;67239;51.680;5.976;2023-04-06T04:23:30;101550.91;;;0.84;72.50
66887;BME280;67239;51.680;5.976;2023-04-06T04:25:57;101554.53;;;0.90;72.41
66887;BME280;67239;51.680;5.976;2023-04-06T04:28:24;101545.97;;;0.95;72.15
66887;BME280;67239;51.680;5.976;2023-04-06T04:30:53;101548.69;;;1.01;71.99
66887;BME280;67239;51.680;5.976;2023-04-06T04:33:22;101555.72;;;1.06;72.29
66887;BME280;67239;51.680;5.976;2023-04-06T04:35:53;101544.56;;;1.12;72.17
66887;BME280;67239;51.680;5.976;2023-04-06T04:38:23;101546.44;;;1.19;72.12
66887;BME280;67239;51.680;5.976;2023-04-06T04:40:53;101544.78;;;1.23;72.08
66887;BME280;67239;51.680;5.976;2023-04-06T04:43:21;101544.03;;;1.29;72.12
66887;BME280;67239;51.680;5.976;2023-04-06T04:45:48;101538.03;;;1.33;71.85
66887;BME280;67239;51.680;5.976;2023-04-06T04:48:34;101545.09;;;1.40;71.42
66887;BME280;67239;51.680;5.976;2023-04-06T04:51:04;101544.31;;;1.44;71.26
66887;BME280;67239;51.680;5.976;2023-04-06T04:53:55;101544.41;;;1.49;70.83
66887;BME280;67239;51.680;5.976;2023-04-06T04:56:26;101541.81;;;1.50;70.69
66887;BME280;67239;51.680;5.976;2023-04-06T04:59:00;101545.34;;;1.52;70.76
66887;BME280;67239;51.680;5.976;2023-04-06T05:01:29;101546.19;;;1.53;70.88
66887;BME280;67239;51.680;5.976;2023-04-06T05:04:09;101551.44;;;1.54;70.80
66887;BME280;67239;51.680;5.976;2023-04-06T05:06:37;101547.19;;;1.58;70.82
66887;BME280;67239;51.680;5.976;2023-04-06T05:09:04;101553.28;;;1.60;70.71
66887;BME280;67239;51.680;5.976;2023-04-06T05:11:31;101552.47;;;1.63;70.68
66887;BME280;67239;51.680;5.976;2023-04-06T05:14:00;101547.31;;;1.66;70.52
66887;BME280;67239;51.680;5.976;2023-04-06T05:16:28;101540.44;;;1.69;70.70
66887;BME280;67239;51.680;5.976;2023-04-06T05:18:55;101543.28;;;1.85;71.02
66887;BME280;67239;51.680;5.976;2023-04-06T05:21:26;101533.66;;;2.33;70.23
66887;BME280;67239;51.680;5.976;2023-04-06T05:23:59;101539.44;;;2.75;68.97
66887;BME280;67239;51.680;5.976;2023-04-06T05:26:27;101542.13;;;2.81;68.31
66887;BME280;67239;51.680;5.976;2023-04-06T05:28:59;101539.41;;;2.73;68.28
66887;BME280;67239;51.680;5.976;2023-04-06T05:31:29;101538.50;;;2.70;68.50
66887;BME280;67239;51.680;5.976;2023-04-06T05:33:57;101551.53;;;2.71;68.47
66887;BME280;67239;51.680;5.976;2023-04-06T05:36:32;101542.91;;;2.74;68.70
66887;BME280;67239;51.680;5.976;2023-04-06T05:39:07;101540.41;;;2.82;68.72
66887;BME280;67239;51.680;5.976;2023-04-06T05:41:43;101535.28;;;2.89;68.56
66887;BME280;67239;51.680;5.976;2023-04-06T05:44:11;101529.34;;;3.00;68.35
66887;BME280;67239;51.680;5.976;2023-04-06T05:46:42;101530.31;;;3.08;68.20
66887;BME280;67239;51.680;5.976;2023-04-06T05:49:13;101528.66;;;3.16;67.91
66887;BME280;67239;51.680;5.976;2023-04-06T05:51:40;101527.03;;;3.26;67.76
66887;BME280;67239;51.680;5.976;2023-04-06T05:54:10;101523.66;;;3.35;67.42
66887;BME280;67239;51.680;5.976;2023-04-06T05:56:37;101522.91;;;3.45;67.17
66887;BME280;67239;51.680;5.976;2023-04-06T05:59:08;101521.25;;;3.53;66.99
66887;BME280;67239;51.680;5.976;2023-04-06T06:01:35;101526.50;;;3.60;66.90
66887;BME280;67239;51.680;5.976;2023-04-06T06:04:04;101523.97;;;3.69;66.60
66887;BME280;67239;51.680;5.976;2023-04-06T06:06:35;101524.06;;;3.77;66.42
66887;BME280;67239;51.680;5.976;2023-04-06T06:09:17;101522.38;;;3.85;66.24
66887;BME280;67239;51.680;5.976;2023-04-06T06:11:55;101526.00;;;4.02;65.88
66887;BME280;67239;51.680;5.976;2023-04-06T06:14:25;101518.28;;;4.19;65.67
66887;BME280;67239;51.680;5.976;2023-04-06T06:16:55;101526.25;;;4.37;65.59
66887;BME280;67239;51.680;5.976;2023-04-06T06:19:22;101514.19;;;4.57;65.49
66887;BME280;67239;51.680;5.976;2023-04-06T06:21:53;101513.44;;;4.80;65.04
66887;BME280;67239;51.680;5.976;2023-04-06T06:24:20;101510.03;;;5.04;64.90
66887;BME280;67239;51.680;5.976;2023-04-06T06:26:47;101510.94;;;5.22;64.32
66887;BME280;67239;51.680;5.976;2023-04-06T06:29:19;101504.00;;;5.39;64.05
66887;BME280;67239;51.680;5.976;2023-04-06T06:31:48;101505.78;;;5.60;63.60
66887;BME280;67239;51.680;5.976;2023-04-06T06:34:16;101503.16;;;5.81;63.27
66887;BME280;67239;51.680;5.976;2023-04-06T06:36:44;101505.78;;;5.98;62.15
66887;BME280;67239;51.680;5.976;2023-04-06T06:39:15;101512.81;;;6.14;61.72
66887;BME280;67239;51.680;5.976;2023-04-06T06:41:43;101515.38;;;6.31;61.10
66887;BME280;67239;51.680;5.976;2023-04-06T06:44:10;101515.38;;;6.41;61.05
66887;BME280;67239;51.680;5.976;2023-04-06T06:46:39;101510.97;;;6.52;60.18
66887;BME280;67239;51.680;5.976;2023-04-06T06:49:07;101510.97;;;6.60;59.13
66887;BME280;67239;51.680;5.976;2023-04-06T06:51:35;101506.56;;;6.68;58.85
66887;BME280;67239;51.680;5.976;2023-04-06T06:54:02;101505.69;;;6.72;58.51
66887;BME280;67239;51.680;5.976;2023-04-06T06:56:30;101503.91;;;6.79;58.42
66887;BME280;67239;51.680;5.976;2023-04-06T06:58:58;101499.53;;;6.82;58.45
66887;BME280;67239;51.680;5.976;2023-04-06T07:01:26;101502.16;;;6.86;57.92
66887;BME280;67239;51.680;5.976;2023-04-06T07:03:55;101495.16;;;6.84;58.04
66887;BME280;67239;51.680;5.976;2023-04-06T07:06:23;101496.88;;;6.87;57.65
66887;BME280;67239;51.680;5.976;2023-04-06T07:08:50;101493.38;;;6.90;57.69
66887;BME280;67239;51.680;5.976;2023-04-06T07:11:18;101490.72;;;6.94;58.21
66887;BME280;67239;51.680;5.976;2023-04-06T07:13:45;101496.78;;;7.03;57.74
66887;BME280;67239;51.680;5.976;2023-04-06T07:16:13;101495.03;;;7.11;57.45
66887;BME280;67239;51.680;5.976;2023-04-06T07:18:41;101495.84;;;7.22;57.56
66887;BME280;67239;51.680;5.976;2023-04-06T07:21:08;101494.00;;;7.37;58.10
66887;BME280;67239;51.680;5.976;2023-04-06T07:23:36;101488.66;;;7.52;57.39
66887;BME280;67239;51.680;5.976;2023-04-06T07:26:04;101492.88;;;7.70;57.46
66887;BME280;67239;51.680;5.976;2023-04-06T07:28:31;101499.72;;;7.88;57.10
66887;BME280;67239;51.680;5.976;2023-04-06T07:31:01;101490.81;;;8.08;56.38
66887;BME280;67239;51.680;5.976;2023-04-06T07:33:28;101492.44;;;8.21;55.77
66887;BME280;67239;51.680;5.976;2023-04-06T07:35:57;101500.16;;;8.38;55.35
66887;BME280;67239;51.680;5.976;2023-04-06T07:38:26;101486.06;;;8.49;54.68
66887;BME280;67239;51.680;5.976;2023-04-06T07:40:54;101486.81;;;8.59;54.18
66887;BME280;67239;51.680;5.976;2023-04-06T07:43:22;101498.09;;;8.68;54.21
66887;BME280;67239;51.680;5.976;2023-04-06T07:45:50;101482.28;;;8.70;53.79
66887;BME280;67239;51.680;5.976;2023-04-06T07:48:18;101488.34;;;8.75;53.31
66887;BME280;67239;51.680;5.976;2023-04-06T07:50:45;101476.03;;;8.80;53.86
66887;BME280;67239;51.680;5.976;2023-04-06T07:53:14;101476.81;;;8.87;53.76
66887;BME280;67239;51.680;5.976;2023-04-06T07:55:44;101477.63;;;8.92;53.43
66887;BME280;67239;51.680;5.976;2023-04-06T07:58:11;101469.66;;;8.97;53.08
66887;BME280;67239;51.680;5.976;2023-04-06T08:00:38;101475.75;;;9.00;53.07
66887;BME280;67239;51.680;5.976;2023-04-06T08:03:05;101474.88;;;9.01;53.06
66887;BME280;67239;51.680;5.976;2023-04-06T08:05:34;101473.13;;;9.00;52.95
66887;BME280;67239;51.680;5.976;2023-04-06T08:08:01;101466.97;;;9.01;52.84
66887;BME280;67239;51.680;5.976;2023-04-06T08:10:28;101469.66;;;8.98;53.31
66887;BME280;67239;51.680;5.976;2023-04-06T08:12:55;101469.66;;;8.98;53.61
66887;BME280;67239;51.680;5.976;2023-04-06T08:15:22;101466.97;;;9.03;53.59
66887;BME280;67239;51.680;5.976;2023-04-06T08:17:49;101473.09;;;9.04;53.88
66887;BME280;67239;51.680;5.976;2023-04-06T08:20:16;101473.91;;;9.09;53.88
66887;BME280;67239;51.680;5.976;2023-04-06T08:22:43;101478.22;;;9.13;53.46
66887;BME280;67239;51.680;5.976;2023-04-06T08:25:10;101471.16;;;9.18;53.35
66887;BME280;67239;51.680;5.976;2023-04-06T08:27:37;101474.56;;;9.23;53.19
66887;BME280;67239;51.680;5.976;2023-04-06T08:30:04;101476.22;;;9.30;53.40
66887;BME280;67239;51.680;5.976;2023-04-06T08:32:32;101476.09;;;9.40;53.47
66887;BME280;67239;51.680;5.976;2023-04-06T08:34:59;101478.50;;;9.54;53.16
66887;BME280;67239;51.680;5.976;2023-04-06T08:37:26;101475.69;;;9.66;53.29
66887;BME280;67239;51.680;5.976;2023-04-06T08:39:54;101485.91;;;9.83;53.34
66887;BME280;67239;51.680;5.976;2023-04-06T08:42:21;101474.25;;;9.98;52.93
66887;BME280;67239;51.680;5.976;2023-04-06T08:44:53;101481.94;;;10.12;53.40
66887;BME280;67239;51.680;5.976;2023-04-06T08:47:21;101464.97;;;10.27;53.23
66887;BME280;67239;51.680;5.976;2023-04-06T08:49:51;101465.69;;;10.35;52.99
66887;BME280;67239;51.680;5.976;2023-04-06T08:52:20;101469.91;;;10.46;52.32
66887;BME280;67239;51.680;5.976;2023-04-06T08:54:47;101463.53;;;10.56;51.53
66887;BME280;67239;51.680;5.976;2023-04-06T08:57:17;101465.09;;;10.66;52.11
66887;BME280;67239;51.680;5.976;2023-04-06T08:59:45;101467.44;;;10.80;51.35
66887;BME280;67239;51.680;5.976;2023-04-06T09:02:17;101466.28;;;10.92;51.45
66887;BME280;67239;51.680;5.976;2023-04-06T09:04:48;101467.03;;;10.99;51.20
66887;BME280;67239;51.680;5.976;2023-04-06T09:07:22;101467.78;;;11.06;51.27
66887;BME280;67239;51.680;5.976;2023-04-06T09:09:50;101470.31;;;11.10;50.44
66887;BME280;67239;51.680;5.976;2023-04-06T09:12:31;101461.38;;;11.16;49.92
66887;BME280;67239;51.680;5.976;2023-04-06T09:15:02;101461.34;;;11.17;49.92
66887;BME280;67239;51.680;5.976;2023-04-06T09:17:32;101460.22;;;11.28;50.71
66887;BME280;67239;51.680;5.976;2023-04-06T09:20:01;101461.63;;;11.44;49.93
66887;BME280;67239;51.680;5.976;2023-04-06T09:22:39;101460.16;;;11.67;49.85
66887;BME280;67239;51.680;5.976;2023-04-06T09:25:09;101457.84;;;11.89;49.81
66887;BME280;67239;51.680;5.976;2023-04-06T09:27:44;101462.59;;;12.11;49.46
66887;BME280;67239;51.680;5.976;2023-04-06T09:30:14;101464.81;;;12.26;48.18
66887;BME280;67239;51.680;5.976;2023-04-06T09:32:52;101470.75;;;12.35;47.85
66887;BME280;67239;51.680;5.976;2023-04-06T09:35:22;101461.78;;;12.40;47.94
66887;BME280;67239;51.680;5.976;2023-04-06T09:37:51;101470.28;;;12.52;47.32
66887;BME280;67239;51.680;5.976;2023-04-06T09:40:22;101465.59;;;12.62;47.61
66887;BME280;67239;51.680;5.976;2023-04-06T09:42:52;101452.06;;;12.72;47.33
66887;BME280;67239;51.680;5.976;2023-04-06T09:45:29;101465.84;;;12.84;47.18
66887;BME280;67239;51.680;5.976;2023-04-06T09:47:57;101464.03;;;12.86;47.07
66887;BME280;67239;51.680;5.976;2023-04-06T09:50:29;101463.00;;;12.90;47.33
66887;BME280;67239;51.680;5.976;2023-04-06T09:53:01;101461.13;;;12.94;46.91
66887;BME280;67239;51.680;5.976;2023-04-06T09:55:40;101458.47;;;12.95;46.81
66887;BME280;67239;51.680;5.976;2023-04-06T09:58:16;101461.88;;;12.99;46.48
66887;BME280;67239;51.680;5.976;2023-04-06T10:01:00;101463.50;;;13.03;46.58
66887;BME280;67239;51.680;5.976;2023-04-06T10:03:41;101454.50;;;13.09;46.12
66887;BME280;67239;51.680;5.976;2023-04-06T10:06:33;101453.59;;;13.10;46.57
66887;BME280;67239;51.680;5.976;2023-04-06T10:09:04;101455.25;;;13.14;46.42
66887;BME280;67239;51.680;5.976;2023-04-06T10:11:34;101459.56;;;13.16;46.38
66887;BME280;67239;51.680;5.976;2023-04-06T10:14:02;101456.91;;;13.16;46.31
66887;BME280;67239;51.680;5.976;2023-04-06T10:16:29;101456.78;;;13.21;46.21
66887;BME280;67239;51.680;5.976;2023-04-06T10:19:02;101459.38;;;13.23;46.26
66887;BME280;67239;51.680;5.976;2023-04-06T10:22:02;101460.91;;;13.30;46.30
66887;BME280;67239;51.680;5.976;2023-04-06T10:24:31;101464.38;;;13.32;46.02
66887;BME280;67239;51.680;5.976;2023-04-06T10:27:01;101465.94;;;13.39;45.48
66887;BME280;67239;51.680;5.976;2023-04-06T10:29:46;101470.28;;;13.42;45.21
66887;BME280;67239;51.680;5.976;2023-04-06T10:32:17;101472.84;;;13.45;46.08
66887;BME280;67239;51.680;5.976;2023-04-06T10:34:44;101472.44;;;13.57;45.64
66887;BME280;67239;51.680;5.976;2023-04-06T10:37:13;101468.50;;;13.69;45.94
66887;BME280;67239;51.680;5.976;2023-04-06T10:39:52;101465.22;;;13.88;45.25
66887;BME280;67239;51.680;5.976;2023-04-06T10:42:24;101469.13;;;14.03;45.74
66887;BME280;67239;51.680;5.976;2023-04-06T10:44:52;101465.97;;;14.18;45.73
66887;BME280;67239;51.680;5.976;2023-04-06T10:47:19;101465.50;;;14.31;45.13
66887;BME280;67239;51.680;5.976;2023-04-06T10:49:46;101470.44;;;14.41;44.87
66887;BME280;67239;51.680;5.976;2023-04-06T10:52:13;101457.97;;;14.43;44.75
66887;BME280;67239;51.680;5.976;2023-04-06T10:54:42;101463.13;;;14.48;45.13
66887;BME280;67239;51.680;5.976;2023-04-06T10:57:12;101457.47;;;14.57;44.02
66887;BME280;67239;51.680;5.976;2023-04-06T10:59:43;101455.09;;;14.50;43.54
66887;BME280;67239;51.680;5.976;2023-04-06T11:02:19;101454.44;;;14.43;43.90
66887;BME280;67239;51.680;5.976;2023-04-06T11:04:58;101452.78;;;14.40;44.80
66887;BME280;67239;51.680;5.976;2023-04-06T11:07:26;101455.09;;;14.50;44.89
66887;BME280;67239;51.680;5.976;2023-04-06T11:09:56;101453.09;;;14.56;44.88
66887;BME280;67239;51.680;5.976;2023-04-06T11:12:42;101449.50;;;14.57;44.22
66887;BME280;67239;51.680;5.976;2023-04-06T11:15:10;101459.41;;;14.52;44.52
66887;BME280;67239;51.680;5.976;2023-04-06T11:17:37;101456.91;;;14.49;44.74
66887;BME280;67239;51.680;5.976;2023-04-06T11:20:10;101459.66;;;14.46;43.77
66887;BME280;67239;51.680;5.976;2023-04-06T11:22:51;101455.78;;;14.31;44.62
66887;BME280;67239;51.680;5.976;2023-04-06T11:25:18;101456.97;;;14.22;45.14
66887;BME280;67239;51.680;5.976;2023-04-06T11:27:46;101449.06;;;14.21;45.82
66887;BME280;67239;51.680;5.976;2023-04-06T11:30:14;101454.75;;;14.10;46.03
66887;BME280;67239;51.680;5.976;2023-04-06T11:32:43;101455.03;;;14.02;47.30
66887;BME280;67239;51.680;5.976;2023-04-06T11:35:19;101461.25;;;14.01;47.79
66887;BME280;67239;51.680;5.976;2023-04-06T11:37:50;101450.59;;;14.03;48.13
66887;BME280;67239;51.680;5.976;2023-04-06T11:40:22;101453.94;;;14.08;47.23
66887;BME280;67239;51.680;5.976;2023-04-06T11:42:53;101452.38;;;14.02;47.31
66887;BME280;67239;51.680;5.976;2023-04-06T11:45:22;101450.59;;;14.03;47.81
66887;BME280;67239;51.680;5.976;2023-04-06T11:47:57;101448.75;;;14.05;47.66
66887;BME280;67239;51.680;5.976;2023-04-06T11:50:32;101446.91;;;14.07;47.89
66887;BME280;67239;51.680;5.976;2023-04-06T11:53:02;101456.78;;;14.02;47.56
66887;BME280;67239;51.680;5.976;2023-04-06T11:55:37;101451.75;;;13.94;48.35
66887;BME280;67239;51.680;5.976;2023-04-06T11:58:06;101449.59;;;13.80;48.74
66887;BME280;67239;51.680;5.976;2023-04-06T12:00:33;101455.31;;;13.68;49.57
66887;BME280;67239;51.680;5.976;2023-04-06T12:03:01;101452.31;;;13.51;50.17
66887;BME280;67239;51.680;5.976;2023-04-06T12:05:28;101454.56;;;13.35;50.77
66887;BME280;67239;51.680;5.976;2023-04-06T12:07:55;101451.75;;;13.12;51.41
66887;BME280;67239;51.680;5.976;2023-04-06T12:10:26;101447.91;;;12.94;52.11
66887;BME280;67239;51.680;5.976;2023-04-06T12:12:53;101449.28;;;12.77;53.29
66887;BME280;67239;51.680;5.976;2023-04-06T12:15:20;101450.56;;;12.64;53.81
66887;BME280;67239;51.680;5.976;2023-04-06T12:17:48;101450.13;;;12.48;54.28
66887;BME280;67239;51.680;5.976;2023-04-06T12:20:16;101456.81;;;12.30;54.39
66887;BME280;67239;51.680;5.976;2023-04-06T12:22:52;101447.66;;;12.10;54.82
66887;BME280;67239;51.680;5.976;2023-04-06T12:25:19;101447.31;;;11.88;55.49
66887;BME280;67239;51.680;5.976;2023-04-06T12:27:47;101445.94;;;11.73;57.02
66887;BME280;67239;51.680;5.976;2023-04-06T12:30:14;101455.09;;;11.59;57.69
66887;BME280;67239;51.680;5.976;2023-04-06T12:32:42;101456.13;;;11.52;58.56
66887;BME280;67239;51.680;5.976;2023-04-06T12:35:09;101455.38;;;11.47;58.91
66887;BME280;67239;51.680;5.976;2023-04-06T12:37:38;101453.66;;;11.46;59.39
66887;BME280;67239;51.680;5.976;2023-04-06T12:40:05;101462.47;;;11.45;59.97
66887;BME280;67239;51.680;5.976;2023-04-06T12:42:33;101456.63;;;11.32;61.25
66887;BME280;67239;51.680;5.976;2023-04-06T12:45:00;101450.75;;;11.19;61.83
66887;BME280;67239;51.680;5.976;2023-04-06T12:47:27;101442.13;;;11.11;62.70
66887;BME280;67239;51.680;5.976;2023-04-06T12:49:55;101451.25;;;10.97;62.92
66887;BME280;67239;51.680;5.976;2023-04-06T12:52:23;101442.59;;;10.91;63.50
66887;BME280;67239;51.680;5.976;2023-04-06T12:54:50;101438.25;;;10.88;63.91
66887;BME280;67239;51.680;5.976;2023-04-06T12:57:18;101435.75;;;10.82;64.58
66887;BME280;67239;51.680;5.976;2023-04-06T12:59:45;101445.59;;;10.74;65.28
66887;BME280;67239;51.680;5.976;2023-04-06T13:02:13;101437.81;;;10.67;65.80
66887;BME280;67239;51.680;5.976;2023-04-06T13:04:40;101430.03;;;10.61;66.14
66887;BME280;67239;51.680;5.976;2023-04-06T13:07:08;101436.25;;;10.59;66.86
66887;BME280;67239;51.680;5.976;2023-04-06T13:09:35;101431.06;;;10.54;68.11